WEATHER DATA

YESTERDAY
Time Temp. Dewp. Hum. Bar.
00:14 -2.9 -3.5 95 960.1
00:23 -2.9 -3.5 95 960.2
00:44 -2.9 -3.4 96 960.2
01:03 -2.9 -3.4 96 960.5
01:14 -2.9 -3.4 96 960.6
01:24 -2.8 -3.3 96 960.5
01:43 -2.8 -3.4 95 960.7
01:54 -2.8 -3.4 95 960.8
02:04 -2.8 -3.4 95 960.9
02:13 -2.7 -3.3 95 961
02:24 -2.7 -3.3 95 961.1
02:34 -2.7 -3.3 95 961.2
02:44 -2.7 -3.3 95 961.2
02:54 -2.6 -3.2 95 961.3
03:04 -2.6 -3.2 95 961.4
03:14 -2.6 -3.2 95 961.5
03:24 -2.5 -3.1 95 961.6
03:34 -2.5 -3.1 95 961.7
03:44 -2.5 -3.1 95 961.8
03:54 -2.4 -2.9 96 961.9
04:04 -2.4 -2.9 96 962.1
04:14 -2.3 -2.8 96 962.1
04:24 -2.3 -2.8 96 962.2
04:34 -2.3 -2.8 96 962.3
04:44 -2.2 -2.7 96 962.4
04:54 -2.2 -2.7 96 962.6
05:04 -2.2 -2.7 96 962.7
05:15 -2.1 -2.6 96 962.9
05:24 -2.1 -2.6 96 963.1
05:44 -2 -2.5 96 963.4
05:54 -1.9 -2.4 96 963.5
06:04 -1.9 -2.4 96 963.5
06:14 -1.8 -2.3 96 963.7
06:25 -1.8 -2.3 96 963.9
06:34 -1.7 -2.2 96 964
06:44 -1.7 -2.2 96 964.1
06:55 -1.6 -2.1 96 964.3
07:05 -1.6 -2.1 96 964.6
07:14 -1.6 -2.1 96 964.7
07:24 -1.6 -2.1 96 965
07:35 -1.5 -2 96 965.1
07:45 -1.5 -2 96 965.3
07:54 -1.4 -1.9 96 965.4
08:05 -1.4 -1.9 96 965.4
08:15 -1.3 -1.8 96 965.7
08:24 -1.3 -1.8 96 965.9
08:34 -1.3 -1.7 97 966.1
08:45 -1.3 -1.7 97 966.2
08:55 -1.2 -1.6 97 966.4
09:04 -1.2 -1.6 97 966.5
09:15 -1.2 -1.6 97 966.7
09:25 -1.2 -1.6 97 966.8
09:35 -1.1 -1.5 97 967.1
09:45 -1.1 -1.5 97 967.2
09:55 -1.1 -1.5 97 967.4
10:05 -1 -1.4 97 967.7
10:14 -1 -1.4 97 967.9
10:25 -1 -1.4 97 968.2
10:35 -1 -1.4 97 968.4
10:45 -0.9 -1.3 97 968.6
10:55 -0.9 -1.3 97 968.7
11:05 -0.9 -1.3 97 968.8
11:15 -0.8 -1.2 97 969.1
11:25 -0.8 -1.2 97 969.3
11:35 -0.7 -1.1 97 969.5
11:45 -0.7 -1.1 97 969.7
11:55 -0.6 -1 97 970
12:06 -0.6 -1 97 970.2
12:15 -0.5 -0.9 97 970.4
12:25 -0.5 -0.9 97 970.6
12:35 -0.4 -0.8 97 970.8
12:45 -0.4 -0.8 97 971.1
12:55 -0.3 -0.7 97 971.3
13:05 -0.3 -0.7 97 971.4
13:16 -0.3 -0.7 97 971.8
13:25 -0.3 -0.7 97 972
13:35 -0.3 -0.7 97 972.3
13:46 -0.3 -0.7 97 972.5
13:56 -0.3 -0.7 97 972.8
14:05 -0.3 -0.7 97 973
14:15 -0.3 -0.7 97 973.4
14:26 -0.3 -0.7 97 973.6
14:35 -0.3 -0.7 97 973.8
14:45 -0.4 -0.8 97 974
14:56 -0.4 -0.8 97 974.3
15:06 -0.4 -0.8 97 974.6
15:15 -0.4 -0.8 97 974.7
15:25 -0.4 -0.9 96 975
15:36 -0.5 -1 96 975.3
15:46 -0.5 -0.9 97 975.6
15:55 -0.5 -0.9 97 975.8
16:06 -0.5 -0.9 97 975.9
16:16 -0.5 -1 96 976.1
16:25 -0.5 -1 96 976.3
16:36 -0.5 -1 96 976.6
16:46 -0.6 -1.1 96 976.7
16:56 -0.6 -1.1 96 976.9
17:05 -0.6 -1.1 96 977.1
17:16 -0.6 -1.1 96 977.4
17:26 -0.7 -1.2 96 977.5
17:36 -0.7 -1.2 96 977.7
17:46 -0.7 -1.2 96 977.8
17:56 -0.7 -1.2 96 978.1
18:06 -0.7 -1.2 96 978.2
18:16 -0.7 -1.2 96 978.4
18:26 -0.7 -1.2 96 978.7
18:36 -0.7 -1.2 96 978.9
18:46 -0.8 -1.3 96 979
18:56 -0.8 -1.3 96 979.2
19:06 -0.8 -1.3 96 979.4
19:16 -0.9 -1.4 96 979.6
19:26 -0.9 -1.4 96 979.8
19:36 -0.9 -1.4 96 980
19:46 -0.9 -1.4 96 980.2
19:56 -0.9 -1.4 96 980.4
20:07 -0.9 -1.4 96 980.7
20:16 -1 -1.5 96 980.8
20:26 -1 -1.5 96 981
20:36 -1 -1.5 96 981.2
20:46 -1 -1.5 96 981.4
20:56 -1 -1.5 96 981.5
21:06 -1 -1.5 96 981.8
21:17 -1 -1.5 96 981.9
21:26 -1 -1.4 97 982.1
21:36 -1 -1.4 97 982.3
21:47 -1 -1.4 97 982.5
21:57 -1 -1.4 97 982.7
22:06 -1 -1.4 97 982.9
22:16 -1 -1.5 96 983
22:27 -1 -1.4 97 983.3
22:36 -1 -1.5 96 983.4
22:46 -0.9 -1.4 96 983.6
22:57 -0.9 -1.4 96 983.7
23:07 -0.9 -1.4 96 983.9
23:16 -0.9 -1.4 96 984
23:27 -0.9 -1.4 96 984.2
23:37 -0.9 -1.4 96 984.5
23:47 -0.9 -1.4 96 984.7
23:56 -0.9 -1.4 96 984.8

DAY STATISTIC

2018-12-10
TEMPERATURE
AVERAGE
-1.2
HIGH
-0.3
12:55
LOW
-2.9
00:14
PRESSURE
AVERAGE
971.4
HIGH
984.8
23:56
LOW
960.1
00:14
DEWPOINT
AVERAGE
-1.7
HIGH
-0.7
12:55
LOW
-3.5
00:14
HUMIDITY
AVERAGE
96
HIGH
97
08:34
LOW
95
00:14
TEMPERATURE (°C)
LOW
-2.9
HIGH
-0.3
AVERAGE
-1.2
PRESSURE (hpa)
LOW
960.1
HIGH
984.8
AVERAGE
971.4
DEVICE